createdAt,value
2018-01-31T01:52:49.452Z,7.30
2018-01-31T01:55:17.002Z,7.30
2018-01-31T01:57:45.307Z,7.40
2018-01-31T02:00:12.887Z,7.40
2018-01-31T02:02:40.440Z,7.40
2018-01-31T02:05:08.742Z,7.30
2018-01-31T02:07:36.343Z,7.30
2018-01-31T02:10:03.882Z,7.20
2018-01-31T02:12:31.436Z,7.00
2018-01-31T02:14:59.751Z,6.80
2018-01-31T02:17:27.308Z,6.70
2018-01-31T02:19:55.638Z,6.50
2018-01-31T02:22:23.192Z,6.50
2018-01-31T02:24:50.747Z,6.50
2018-01-31T02:27:19.087Z,6.30
2018-01-31T02:29:46.634Z,6.30
2018-01-31T02:32:14.188Z,6.30
2018-01-31T02:34:42.511Z,6.30
2018-01-31T02:37:10.081Z,6.30
2018-01-31T02:39:49.514Z,6.30
2018-01-31T02:42:17.055Z,6.40
2018-01-31T02:44:45.356Z,6.50
2018-01-31T02:47:13.698Z,6.60
2018-01-31T02:49:41.237Z,6.60
2018-01-31T02:52:08.790Z,6.60
2018-01-31T02:54:37.084Z,6.70
2018-01-31T02:57:04.675Z,6.70
2018-01-31T02:59:32.215Z,6.80
2018-01-31T03:01:59.766Z,6.90
2018-01-31T03:04:27.339Z,6.90
2018-01-31T03:06:54.913Z,6.90
2018-01-31T03:09:22.508Z,6.90
2018-01-31T03:11:50.036Z,7.00
2018-01-31T03:14:17.588Z,6.90
2018-01-31T03:16:45.150Z,7.00
2018-01-31T03:19:12.676Z,7.00
2018-01-31T03:21:40.244Z,6.90
2018-01-31T03:24:07.789Z,6.90
2018-01-31T03:26:35.367Z,6.90
2018-01-31T03:29:02.884Z,7.00
2018-01-31T03:31:30.436Z,7.00
2018-01-31T03:33:57.977Z,7.00
2018-01-31T03:36:25.517Z,7.10
2018-01-31T03:38:53.077Z,7.10
2018-01-31T03:41:21.399Z,7.20
2018-01-31T03:43:48.976Z,7.20
2018-01-31T03:46:16.545Z,7.20
2018-01-31T03:48:44.352Z,7.10
2018-01-31T03:51:11.874Z,7.10
2018-01-31T03:53:39.454Z,7.10
2018-01-31T03:56:07.013Z,7.20
2018-01-31T03:58:35.360Z,7.20
2018-01-31T04:01:02.896Z,7.20
2018-01-31T04:03:30.439Z,7.30
2018-01-31T04:05:58.737Z,7.30
2018-01-31T04:08:26.300Z,7.20
2018-01-31T04:10:53.823Z,7.20
2018-01-31T04:13:21.391Z,7.20
2018-01-31T04:15:48.944Z,7.10
2018-01-31T04:18:16.490Z,7.10
2018-01-31T04:20:44.814Z,6.90
2018-01-31T04:23:12.387Z,6.90
2018-01-31T04:25:40.693Z,6.90
2018-01-31T04:28:08.248Z,6.90
2018-01-31T04:30:35.792Z,6.90
2018-01-31T04:33:04.147Z,7.00
2018-01-31T04:35:31.711Z,7.00
2018-01-31T04:38:00.058Z,7.10
2018-01-31T04:40:27.585Z,7.10
2018-01-31T04:42:55.118Z,7.10
2018-01-31T04:45:22.674Z,7.10
2018-01-31T04:47:50.205Z,7.10
2018-01-31T04:50:17.778Z,7.20
2018-01-31T04:52:45.381Z,7.30
2018-01-31T04:55:12.940Z,7.20
2018-01-31T04:57:41.231Z,7.10
2018-01-31T05:00:09.636Z,7.00
2018-01-31T05:02:37.179Z,7.00
2018-01-31T05:05:04.751Z,7.00
2018-01-31T05:07:33.070Z,6.90
2018-01-31T05:10:01.492Z,7.00
2018-01-31T05:12:29.012Z,7.00
2018-01-31T05:14:57.351Z,7.20
2018-01-31T05:17:24.951Z,7.20
2018-01-31T05:19:52.494Z,7.30
2018-01-31T05:22:20.033Z,7.30
2018-01-31T05:24:48.388Z,7.40
2018-01-31T05:27:15.937Z,7.40
2018-01-31T05:29:43.493Z,7.40
2018-01-31T05:32:11.416Z,7.40
2018-01-31T05:34:38.973Z,7.40
2018-01-31T05:37:06.534Z,7.40
2018-01-31T05:39:34.096Z,7.30
2018-01-31T05:42:01.642Z,7.30
2018-01-31T05:44:29.950Z,7.30
2018-01-31T05:46:57.486Z,7.30
2018-01-31T05:49:25.038Z,7.30
2018-01-31T05:51:52.574Z,7.20
2018-01-31T05:54:20.099Z,7.30
2018-01-31T05:56:48.285Z,7.30
2018-01-31T05:59:16.586Z,7.40
2018-01-31T06:01:44.932Z,7.30
2018-01-31T06:04:12.442Z,7.30
2018-01-31T06:06:40.749Z,7.40
2018-01-31T06:09:08.293Z,7.30
2018-01-31T06:11:35.863Z,7.40
2018-01-31T06:14:03.381Z,7.40
2018-01-31T06:16:30.922Z,7.40
2018-01-31T06:18:59.222Z,7.40
2018-01-31T06:21:27.578Z,7.40
2018-01-31T06:23:55.171Z,7.30
2018-01-31T06:26:23.518Z,7.40
2018-01-31T06:28:51.058Z,7.40
2018-01-31T06:31:18.602Z,7.40
2018-01-31T06:33:46.150Z,7.40
2018-01-31T06:36:13.714Z,7.40
2018-01-31T06:38:41.408Z,7.50
2018-01-31T06:41:09.756Z,7.40
2018-01-31T06:43:37.297Z,7.40
2018-01-31T06:46:05.612Z,7.50
2018-01-31T06:48:33.152Z,7.40
2018-01-31T06:51:01.496Z,7.50
2018-01-31T06:53:29.058Z,7.50
2018-01-31T06:55:56.625Z,7.50
2018-01-31T06:58:24.194Z,7.50
2018-01-31T07:00:51.780Z,7.50
2018-01-31T07:03:19.300Z,7.60
2018-01-31T07:05:46.890Z,7.60
2018-01-31T07:08:14.410Z,7.60
2018-01-31T07:10:42.040Z,7.60
2018-01-31T07:13:09.575Z,7.70
2018-01-31T07:15:37.165Z,7.70
2018-01-31T07:18:05.761Z,7.90
2018-01-31T07:20:34.065Z,7.90
2018-01-31T07:23:02.370Z,7.90
2018-01-31T07:25:29.922Z,7.90
2018-01-31T07:27:58.339Z,8.00
2018-01-31T07:30:25.891Z,7.90
2018-01-31T07:32:54.194Z,8.00
2018-01-31T07:35:23.435Z,8.00
2018-01-31T07:37:50.980Z,8.10
2018-01-31T07:40:18.523Z,8.10
2018-01-31T07:42:46.937Z,8.20
2018-01-31T07:45:14.479Z,8.20
2018-01-31T07:47:42.074Z,8.20
2018-01-31T07:50:10.384Z,8.20
2018-01-31T07:52:38.068Z,8.20
2018-01-31T07:55:05.603Z,8.20
2018-01-31T07:57:33.948Z,8.30
2018-01-31T08:00:01.474Z,8.20
2018-01-31T08:02:29.797Z,8.30
2018-01-31T08:04:57.325Z,8.30
2018-01-31T08:07:24.898Z,8.30
2018-01-31T08:09:53.313Z,8.40
2018-01-31T08:12:20.980Z,8.40
2018-01-31T08:14:48.596Z,8.50
2018-01-31T08:17:17.060Z,8.50
2018-01-31T08:19:44.606Z,8.50
2018-01-31T08:22:12.936Z,8.50
2018-01-31T08:24:40.487Z,8.50
2018-01-31T08:27:08.068Z,8.60
2018-01-31T08:29:35.621Z,8.60
2018-01-31T08:32:03.970Z,8.60
2018-01-31T08:34:31.514Z,8.50
2018-01-31T08:36:59.092Z,8.70
2018-01-31T08:39:26.654Z,8.70
2018-01-31T08:41:54.190Z,8.80
2018-01-31T08:44:22.532Z,8.80
2018-01-31T08:46:50.052Z,8.80
2018-01-31T08:49:18.399Z,9.00
2018-01-31T08:51:45.918Z,8.90
2018-01-31T08:54:14.230Z,9.00
2018-01-31T08:56:41.764Z,8.90
2018-01-31T08:59:09.328Z,9.00
2018-01-31T09:01:36.855Z,9.10
2018-01-31T09:04:04.404Z,9.10
2018-01-31T09:06:32.712Z,9.20
2018-01-31T09:09:00.262Z,9.20
2018-01-31T09:11:28.550Z,9.30
2018-01-31T09:13:56.870Z,9.30
2018-01-31T09:16:24.400Z,9.30
2018-01-31T09:18:52.727Z,9.30
2018-01-31T09:21:20.295Z,9.30
2018-01-31T09:23:47.882Z,9.30
2018-01-31T09:26:15.408Z,9.40
2018-01-31T09:28:43.739Z,9.40
2018-01-31T09:31:11.280Z,9.30
2018-01-31T09:33:39.603Z,9.30
2018-01-31T09:36:07.159Z,9.30
2018-01-31T09:38:34.731Z,9.20
2018-01-31T09:41:02.299Z,9.30
2018-01-31T09:43:29.838Z,9.30
2018-01-31T09:45:57.397Z,9.40
2018-01-31T09:48:24.924Z,9.50
2018-01-31T09:50:52.487Z,9.60
2018-01-31T09:53:20.043Z,9.60
2018-01-31T09:55:48.386Z,9.60
2018-01-31T09:58:16.799Z,9.60
2018-01-31T10:00:44.323Z,9.60
2018-01-31T10:03:11.871Z,9.70
2018-01-31T10:05:40.189Z,9.70
2018-01-31T10:08:07.721Z,9.70
2018-01-31T10:10:36.033Z,9.70
2018-01-31T10:13:03.552Z,9.80
2018-01-31T10:15:31.100Z,9.80
2018-01-31T10:17:58.636Z,9.70
2018-01-31T10:20:26.203Z,9.80
2018-01-31T10:22:53.726Z,9.60
2018-01-31T10:25:36.370Z,9.60
2018-01-31T10:28:04.322Z,9.50
2018-01-31T10:30:31.872Z,9.50
2018-01-31T10:32:59.421Z,9.60
2018-01-31T10:35:27.738Z,9.50
2018-01-31T10:37:56.028Z,9.30
2018-01-31T10:40:24.344Z,9.30
2018-01-31T10:42:51.882Z,9.30
2018-01-31T10:45:20.191Z,9.20
2018-01-31T10:47:47.748Z,9.20
2018-01-31T10:50:15.285Z,9.20
2018-01-31T10:52:42.820Z,9.40
2018-01-31T10:57:38.758Z,9.60
2018-01-31T11:00:06.296Z,9.60
2018-01-31T11:02:33.828Z,9.70
2018-01-31T11:05:02.150Z,9.90
2018-01-31T11:07:29.665Z,9.80
2018-01-31T11:09:57.269Z,9.80
2018-01-31T11:12:24.799Z,9.90
2018-01-31T11:14:53.124Z,10.20
2018-01-31T11:17:20.722Z,10.20
2018-01-31T11:19:48.261Z,10.30
2018-01-31T11:22:15.857Z,10.30
2018-01-31T11:24:43.412Z,10.20
2018-01-31T11:27:10.974Z,10.10
2018-01-31T11:29:38.503Z,10.20
2018-01-31T11:32:06.045Z,10.30
2018-01-31T11:34:33.569Z,10.30
2018-01-31T11:37:01.124Z,10.40
2018-01-31T11:39:29.424Z,10.30
2018-01-31T11:41:57.018Z,10.30
2018-01-31T11:44:25.376Z,10.30
2018-01-31T11:46:53.702Z,10.30
2018-01-31T11:49:21.240Z,10.30
2018-01-31T11:51:49.578Z,10.30
2018-01-31T11:54:21.482Z,10.30
2018-01-31T11:56:49.049Z,10.40
2018-01-31T11:59:16.580Z,10.40
2018-01-31T12:01:45.054Z,10.30
2018-01-31T12:04:13.376Z,10.40
2018-01-31T12:06:40.918Z,10.40
2018-01-31T12:09:21.080Z,10.50
2018-01-31T12:11:49.406Z,10.50
2018-01-31T12:14:28.690Z,10.50
2018-01-31T12:17:07.935Z,10.70
2018-01-31T12:19:47.316Z,10.70
2018-01-31T12:22:23.628Z,10.80
2018-01-31T12:25:03.054Z,10.80
2018-01-31T12:27:42.372Z,10.90
2018-01-31T12:30:21.695Z,10.90
2018-01-31T12:33:01.124Z,10.90
2018-01-31T12:35:41.253Z,10.80
2018-01-31T12:38:21.400Z,10.80
2018-01-31T12:40:48.517Z,10.80
2018-01-31T12:43:15.666Z,10.90
2018-01-31T12:45:42.760Z,10.90
2018-01-31T12:48:22.263Z,11.00
2018-01-31T12:51:02.330Z,11.10
2018-01-31T12:53:38.716Z,11.00
2018-01-31T12:56:18.905Z,10.80
2018-01-31T13:01:54.919Z,10.90
2018-01-31T13:04:34.358Z,10.80
2018-01-31T13:07:13.648Z,10.90
2018-01-31T13:09:53.008Z,11.00
2018-01-31T13:12:32.295Z,11.00
2018-01-31T13:15:12.370Z,10.90
2018-01-31T13:17:51.665Z,10.90
2018-01-31T13:20:30.901Z,10.90
2018-01-31T13:22:58.465Z,11.00
2018-01-31T13:25:37.725Z,11.00
2018-01-31T13:28:22.906Z,11.10
2018-01-31T13:34:09.789Z,11.00
2018-01-31T13:36:49.118Z,11.00
2018-01-31T13:39:28.412Z,10.90
2018-01-31T13:42:08.383Z,10.80
2018-01-31T13:44:48.547Z,11.00
2018-01-31T13:47:28.681Z,11.10
2018-01-31T13:53:16.586Z,11.10
2018-01-31T13:55:55.925Z,11.10
2018-01-31T13:58:35.404Z,11.00
2018-01-31T14:01:15.499Z,10.90
2018-01-31T14:03:54.726Z,10.90
2018-01-31T14:06:34.840Z,10.80
2018-01-31T14:09:14.109Z,10.70
2018-01-31T14:11:53.396Z,10.70
2018-01-31T14:14:34.327Z,10.60
2018-01-31T14:17:13.618Z,10.60
2018-01-31T14:19:53.839Z,10.50
2018-01-31T14:22:33.100Z,10.50
2018-01-31T14:25:12.449Z,10.60
2018-01-31T14:27:51.687Z,10.60
2018-01-31T14:30:31.070Z,10.60
2018-01-31T14:33:11.105Z,10.50
2018-01-31T14:35:50.590Z,10.50
2018-01-31T14:38:18.385Z,10.40
2018-01-31T14:40:45.463Z,10.40
2018-01-31T14:43:12.503Z,10.50
2018-01-31T14:45:40.327Z,10.50
2018-01-31T14:48:07.460Z,10.50
2018-01-31T14:50:34.521Z,10.50
2018-01-31T14:53:01.548Z,10.60
2018-01-31T14:55:28.592Z,10.50
2018-01-31T14:57:55.660Z,10.50
2018-01-31T15:00:22.717Z,10.40
2018-01-31T15:02:49.740Z,10.30
2018-01-31T15:05:16.785Z,10.30
2018-01-31T15:07:43.820Z,10.30
2018-01-31T15:10:11.633Z,10.20
2018-01-31T15:12:38.669Z,10.10
2018-01-31T15:15:05.713Z,10.10
2018-01-31T15:17:33.570Z,10.00
2018-01-31T15:20:00.610Z,10.00
2018-01-31T15:22:27.628Z,10.00
2018-01-31T15:24:54.683Z,10.00
2018-01-31T15:27:21.733Z,10.00
2018-01-31T15:29:49.524Z,10.00
2018-01-31T15:32:16.571Z,10.00
2018-01-31T15:34:44.359Z,10.00
2018-01-31T15:37:11.414Z,9.90
2018-01-31T15:39:38.464Z,9.90
2018-01-31T15:42:06.297Z,9.90
2018-01-31T15:44:33.322Z,9.90
2018-01-31T15:47:00.370Z,9.80
2018-01-31T15:49:28.152Z,9.80
2018-01-31T15:51:55.965Z,9.70
2018-01-31T15:54:22.979Z,9.70
2018-01-31T15:56:50.802Z,9.80
2018-01-31T15:59:17.817Z,9.80
2018-01-31T16:01:45.616Z,9.70
2018-01-31T16:04:12.636Z,9.70
2018-01-31T16:06:39.679Z,9.70
2018-01-31T16:09:06.695Z,9.60
2018-01-31T16:11:33.745Z,9.60
2018-01-31T16:14:00.764Z,9.60
2018-01-31T16:16:28.296Z,9.50
2018-01-31T16:19:07.761Z,9.50
2018-01-31T16:21:35.307Z,9.50
2018-01-31T16:24:02.836Z,9.50
2018-01-31T16:26:30.373Z,9.50
2018-01-31T16:29:10.622Z,9.50
2018-01-31T16:31:49.938Z,9.40
2018-01-31T16:34:18.516Z,9.40
2018-01-31T16:37:05.694Z,9.40
2018-01-31T16:42:16.512Z,9.50
2018-01-31T16:44:44.047Z,9.40
2018-01-31T16:47:11.815Z,9.50
2018-01-31T16:49:39.330Z,9.50
2018-01-31T16:52:07.632Z,9.50
2018-01-31T16:54:35.161Z,9.50
2018-01-31T16:57:02.694Z,9.50
2018-01-31T16:59:31.692Z,9.50
2018-01-31T17:01:59.336Z,9.40
2018-01-31T17:04:27.617Z,9.50
2018-01-31T17:06:55.148Z,9.50
2018-01-31T17:09:22.759Z,9.50
2018-01-31T17:11:51.167Z,9.40
2018-01-31T17:14:19.442Z,9.20
2018-01-31T17:16:47.719Z,9.10
2018-01-31T17:19:15.257Z,9.10
2018-01-31T17:21:42.786Z,9.00
2018-01-31T17:24:11.080Z,8.80
2018-01-31T17:26:39.362Z,8.80
2018-01-31T17:29:07.658Z,8.70
2018-01-31T17:31:35.935Z,8.70
2018-01-31T17:34:04.238Z,8.60
2018-01-31T17:36:32.514Z,8.60
2018-01-31T17:39:00.820Z,8.60
2018-01-31T17:41:28.351Z,8.60
2018-01-31T17:43:56.045Z,8.60
2018-01-31T17:46:24.329Z,8.50
2018-01-31T17:48:51.886Z,8.40
2018-01-31T17:51:19.406Z,8.40
2018-01-31T17:53:46.966Z,8.40
2018-01-31T17:56:15.259Z,8.30
2018-01-31T17:58:43.567Z,8.30
2018-01-31T18:01:11.098Z,8.30
2018-01-31T18:03:38.632Z,8.30
2018-01-31T18:06:06.147Z,8.20
2018-01-31T18:08:33.696Z,8.20
2018-01-31T18:11:01.268Z,8.20
2018-01-31T18:13:28.808Z,8.20
2018-01-31T18:15:56.324Z,8.10
2018-01-31T18:18:23.861Z,8.10
2018-01-31T18:20:51.375Z,8.10
2018-01-31T18:23:19.679Z,8.00
2018-01-31T18:25:47.962Z,7.90
2018-01-31T18:28:16.280Z,7.80
2018-01-31T18:30:43.790Z,7.80
2018-01-31T18:33:11.322Z,7.80
2018-01-31T18:35:38.848Z,7.80
2018-01-31T18:38:06.366Z,7.70
2018-01-31T18:40:33.903Z,7.70
2018-01-31T18:43:01.416Z,7.60
2018-01-31T18:45:28.968Z,7.60
2018-01-31T18:47:56.484Z,7.60
2018-01-31T18:50:24.072Z,7.60
2018-01-31T18:52:51.595Z,7.60
2018-01-31T18:55:19.132Z,7.50
2018-01-31T18:57:47.423Z,7.50
2018-01-31T19:00:14.974Z,7.40
2018-01-31T19:02:42.505Z,7.40
2018-01-31T19:05:10.050Z,7.40
2018-01-31T19:07:38.373Z,7.40
2018-01-31T19:10:05.958Z,7.40
2018-01-31T19:12:33.564Z,7.40
2018-01-31T19:15:01.094Z,7.40
2018-01-31T19:17:28.665Z,7.30
2018-01-31T19:19:56.208Z,7.30
2018-01-31T19:22:24.489Z,7.30
2018-01-31T19:24:52.802Z,7.30
2018-01-31T19:27:20.403Z,7.20
2018-01-31T19:29:47.987Z,7.20
2018-01-31T19:32:15.545Z,7.20
2018-01-31T19:34:43.132Z,7.10
2018-01-31T19:37:10.708Z,7.20
2018-01-31T19:39:38.245Z,7.10
2018-01-31T19:42:05.807Z,7.10
2018-01-31T19:44:34.114Z,7.00
2018-01-31T19:47:01.688Z,7.00
2018-01-31T19:49:29.214Z,7.00
2018-01-31T19:51:57.516Z,7.00
2018-01-31T19:54:25.843Z,7.00
2018-01-31T19:56:53.364Z,7.00
2018-01-31T19:59:20.867Z,7.00
2018-01-31T20:01:48.459Z,7.00
2018-01-31T20:04:16.050Z,7.00
2018-01-31T20:06:43.581Z,6.90
2018-01-31T20:09:11.865Z,6.90
2018-01-31T20:11:39.447Z,6.90
2018-01-31T20:14:07.017Z,6.90
2018-01-31T20:16:34.619Z,6.90
2018-01-31T20:19:02.132Z,6.80
2018-01-31T20:21:30.492Z,6.80
2018-01-31T20:23:58.105Z,6.80
2018-01-31T20:26:25.621Z,6.70
2018-01-31T20:28:53.144Z,6.70
2018-01-31T20:31:21.500Z,6.70
2018-01-31T20:33:49.021Z,6.70
2018-01-31T20:36:16.567Z,6.70
2018-01-31T20:38:44.851Z,6.70
2018-01-31T20:41:12.443Z,6.60
2018-01-31T20:43:40.723Z,6.60
2018-01-31T20:46:09.069Z,6.50
2018-01-31T20:48:36.573Z,6.50
2018-01-31T20:51:04.931Z,6.50
2018-01-31T20:53:32.440Z,6.50
2018-01-31T20:56:00.050Z,6.50
2018-01-31T20:58:27.627Z,6.50
2018-01-31T21:00:55.182Z,6.50
2018-01-31T21:03:23.459Z,6.50
2018-01-31T21:05:51.737Z,6.40
2018-01-31T21:08:19.274Z,6.40
2018-01-31T21:10:46.786Z,6.40
2018-01-31T21:13:14.396Z,6.40
2018-01-31T21:15:41.967Z,6.40
2018-01-31T21:18:09.570Z,6.40
2018-01-31T21:20:37.101Z,6.30
2018-01-31T21:23:04.668Z,6.30
2018-01-31T21:25:32.244Z,6.30
2018-01-31T21:27:59.853Z,6.40
2018-01-31T21:30:27.389Z,6.40
2018-01-31T21:32:54.931Z,6.30
2018-01-31T21:35:22.469Z,6.30
2018-01-31T21:37:50.047Z,6.30
2018-01-31T21:40:17.631Z,6.40
2018-01-31T21:42:45.184Z,6.40
2018-01-31T21:45:12.740Z,6.30
2018-01-31T21:47:40.286Z,6.30
2018-01-31T21:50:08.565Z,6.30
2018-01-31T21:52:36.873Z,6.30
2018-01-31T21:55:04.399Z,6.30
2018-01-31T21:57:43.879Z,6.30
2018-01-31T22:00:12.218Z,6.40
2018-01-31T22:02:39.749Z,6.30
2018-01-31T22:05:08.085Z,6.30
2018-01-31T22:07:35.614Z,6.30
2018-01-31T22:10:03.908Z,6.40
2018-01-31T22:12:32.208Z,6.40
2018-01-31T22:14:59.774Z,6.30
2018-01-31T22:17:27.304Z,6.40
2018-01-31T22:19:54.877Z,6.40
2018-01-31T22:22:22.401Z,6.40
2018-01-31T22:24:49.949Z,6.50
2018-01-31T22:27:18.262Z,6.50
2018-01-31T22:29:45.815Z,6.50
2018-01-31T22:32:14.163Z,6.50
2018-01-31T22:34:41.720Z,6.50
2018-01-31T22:37:09.287Z,6.50
2018-01-31T22:39:36.900Z,6.50
2018-01-31T22:42:05.047Z,6.60
2018-01-31T22:44:32.578Z,6.50
2018-01-31T22:47:00.902Z,6.50
2018-01-31T22:49:28.501Z,6.50
2018-01-31T22:51:56.064Z,6.50
2018-01-31T22:54:23.638Z,6.50
2018-01-31T22:56:51.152Z,6.50
2018-01-31T22:59:19.456Z,6.50
2018-01-31T23:01:46.974Z,6.50
2018-01-31T23:04:14.522Z,6.50
2018-01-31T23:06:42.046Z,6.50
2018-01-31T23:09:10.388Z,6.50
2018-01-31T23:11:43.601Z,6.50
2018-01-31T23:14:16.844Z,6.50
2018-01-31T23:16:44.373Z,6.50
2018-01-31T23:19:11.958Z,6.50
2018-01-31T23:21:39.488Z,6.50
2018-01-31T23:24:07.104Z,6.50
2018-01-31T23:26:35.388Z,6.50
2018-01-31T23:29:02.932Z,6.50
2018-01-31T23:31:30.457Z,6.50
2018-01-31T23:33:57.991Z,6.50
2018-01-31T23:36:25.514Z,6.50
2018-01-31T23:38:53.033Z,6.50
2018-01-31T23:41:20.572Z,6.60
2018-01-31T23:43:48.128Z,6.50
2018-01-31T23:46:15.694Z,6.60
2018-01-31T23:48:43.211Z,6.60
2018-01-31T23:51:10.772Z,6.60
2018-01-31T23:53:38.301Z,6.60
2018-01-31T23:56:05.890Z,6.60
2018-01-31T23:58:33.392Z,6.60
